createdAt,value
2018-12-14T00:02:07.680Z,95.71
2018-12-14T00:04:36.754Z,95.71
2018-12-14T00:07:05.873Z,95.69
2018-12-14T00:09:34.944Z,95.59
2018-12-14T00:12:04.278Z,95.71
2018-12-14T00:14:33.321Z,95.79
2018-12-14T00:17:02.351Z,95.70
2018-12-14T00:19:31.392Z,95.74
2018-12-14T00:22:00.652Z,95.84
2018-12-14T00:24:29.633Z,95.83
2018-12-14T00:26:59.042Z,95.84
2018-12-14T00:29:28.110Z,95.94
2018-12-14T00:31:57.173Z,95.87
2018-12-14T00:34:26.182Z,95.84
2018-12-14T00:36:55.193Z,95.79
2018-12-14T00:39:24.217Z,95.96
2018-12-14T00:41:53.204Z,95.86
2018-12-14T00:44:22.255Z,95.88
2018-12-14T00:46:51.323Z,96.01
2018-12-14T00:49:20.367Z,95.98
2018-12-14T00:51:49.358Z,95.94
2018-12-14T00:54:18.434Z,95.91
2018-12-14T00:56:47.434Z,95.79
2018-12-14T00:59:16.504Z,95.79
2018-12-14T01:01:45.642Z,95.90
2018-12-14T01:04:14.618Z,96.11
2018-12-14T01:06:43.698Z,95.86
2018-12-14T01:09:12.875Z,95.89
2018-12-14T01:11:42.208Z,95.78
2018-12-14T01:14:11.334Z,95.85
2018-12-14T01:16:40.498Z,95.90
2018-12-14T01:19:09.467Z,95.98
2018-12-14T01:21:38.443Z,96.08
2018-12-14T01:24:07.434Z,96.17
2018-12-14T01:26:36.455Z,96.14
2018-12-14T01:29:05.525Z,96.06
2018-12-14T01:31:34.512Z,95.96
2018-12-14T01:34:03.556Z,96.17
2018-12-14T01:36:32.746Z,96.20
2018-12-14T01:39:01.865Z,96.47
2018-12-14T01:41:30.878Z,96.32
2018-12-14T01:43:59.846Z,96.29
2018-12-14T01:46:28.903Z,96.18
2018-12-14T01:48:57.908Z,96.21
2018-12-14T01:51:26.988Z,96.41
2018-12-14T01:53:56.001Z,96.39
2018-12-14T01:56:24.983Z,96.56
2018-12-14T01:58:54.053Z,96.57
2018-12-14T02:01:23.024Z,96.35
2018-12-14T02:03:52.017Z,96.45
2018-12-14T02:06:21.085Z,96.50
2018-12-14T02:08:50.089Z,96.65
2018-12-14T02:11:19.159Z,96.50
2018-12-14T02:13:48.275Z,96.17
2018-12-14T02:16:17.370Z,96.39
2018-12-14T02:18:46.449Z,96.45
2018-12-14T02:21:15.432Z,96.54
2018-12-14T02:23:44.443Z,96.39
2018-12-14T02:26:13.563Z,96.42
2018-12-14T02:28:42.610Z,96.35
2018-12-14T02:31:11.649Z,96.39
2018-12-14T02:33:40.666Z,96.31
2018-12-14T02:36:09.729Z,96.47
2018-12-14T02:38:38.723Z,96.26
2018-12-14T02:41:07.803Z,96.17
2018-12-14T02:43:37.064Z,96.31
2018-12-14T02:46:06.237Z,96.35
2018-12-14T02:48:35.198Z,96.24
2018-12-14T02:51:04.259Z,96.33
2018-12-14T02:53:33.285Z,96.24
2018-12-14T02:56:02.297Z,95.99
2018-12-14T02:58:31.414Z,96.06
2018-12-14T03:01:00.436Z,96.30
2018-12-14T03:03:29.400Z,96.28
2018-12-14T03:05:58.412Z,96.17
2018-12-14T03:08:27.410Z,96.27
2018-12-14T03:10:56.377Z,96.22
2018-12-14T03:13:25.450Z,96.39
2018-12-14T03:15:54.427Z,96.24
2018-12-14T03:18:23.395Z,96.38
2018-12-14T03:20:52.384Z,96.20
2018-12-14T03:23:21.362Z,96.35
2018-12-14T03:25:50.592Z,96.19
2018-12-14T03:28:19.634Z,96.29
2018-12-14T03:30:48.613Z,96.38
2018-12-14T03:33:17.686Z,96.35
2018-12-14T03:35:46.771Z,96.23
2018-12-14T03:38:15.812Z,96.39
2018-12-14T03:40:44.935Z,96.52
2018-12-14T03:43:13.943Z,96.57
2018-12-14T03:45:42.987Z,96.39
2018-12-14T03:48:12.090Z,96.38
2018-12-14T03:50:41.175Z,96.34
2018-12-14T03:53:10.225Z,96.31
2018-12-14T03:55:39.281Z,96.43
2018-12-14T03:58:08.329Z,96.29
2018-12-14T04:00:37.519Z,96.32
2018-12-14T04:03:06.802Z,96.27
2018-12-14T04:05:36.065Z,96.29
2018-12-14T04:08:05.111Z,96.20
2018-12-14T04:10:34.157Z,96.20
2018-12-14T04:13:03.236Z,96.15
2018-12-14T04:15:32.391Z,96.24
2018-12-14T04:18:01.447Z,96.12
2018-12-14T04:20:30.474Z,96.38
2018-12-14T04:22:59.599Z,96.25
2018-12-14T04:25:28.641Z,96.16
2018-12-14T04:27:57.611Z,96.24
2018-12-14T04:30:26.730Z,96.19
2018-12-14T04:32:56.876Z,96.48
2018-12-14T04:35:25.943Z,96.24
2018-12-14T04:37:55.027Z,96.38
2018-12-14T04:40:24.112Z,96.23
2018-12-14T04:42:53.167Z,96.15
2018-12-14T04:45:22.362Z,96.27
2018-12-14T04:47:51.365Z,96.14
2018-12-14T04:50:20.329Z,96.09
2018-12-14T04:52:49.327Z,96.30
2018-12-14T04:55:18.471Z,96.33
2018-12-14T04:57:47.516Z,96.25
2018-12-14T05:00:16.755Z,96.25
2018-12-14T05:02:45.814Z,96.29
2018-12-14T05:05:14.907Z,96.17
2018-12-14T05:07:43.895Z,96.05
2018-12-14T05:10:13.122Z,96.02
2018-12-14T05:12:42.103Z,96.00
2018-12-14T05:15:11.209Z,96.07
2018-12-14T05:17:40.391Z,96.02
2018-12-14T05:20:09.613Z,96.11
2018-12-14T05:22:38.596Z,96.03
2018-12-14T05:25:07.758Z,95.78
2018-12-14T05:27:36.880Z,96.05
2018-12-14T05:30:07.316Z,95.98
2018-12-14T05:32:36.298Z,95.95
2018-12-14T05:35:05.623Z,96.14
2018-12-14T05:37:34.682Z,96.20
2018-12-14T05:40:03.798Z,96.17
2018-12-14T05:42:32.814Z,96.01
2018-12-14T05:45:01.770Z,96.13
2018-12-14T05:47:30.779Z,96.13
2018-12-14T05:49:59.856Z,96.12
2018-12-14T05:52:29.042Z,96.10
2018-12-14T05:54:58.092Z,96.17
2018-12-14T05:57:27.261Z,96.10
2018-12-14T05:59:57.695Z,96.21
2018-12-14T06:02:26.837Z,96.23
2018-12-14T06:04:56.044Z,96.07
2018-12-14T06:07:25.137Z,96.19
2018-12-14T06:09:54.135Z,96.39
2018-12-14T06:12:23.405Z,96.46
2018-12-14T06:14:52.482Z,96.21
2018-12-14T06:17:21.571Z,96.24
2018-12-14T06:19:50.562Z,96.36
2018-12-14T06:22:20.202Z,96.40
2018-12-14T06:24:49.378Z,96.12
2018-12-14T06:27:18.636Z,96.29
2018-12-14T06:29:47.757Z,96.30
2018-12-14T06:32:17.125Z,96.12
2018-12-14T06:34:46.211Z,96.28
2018-12-14T06:37:15.764Z,96.38
2018-12-14T06:39:44.834Z,96.26
2018-12-14T06:42:14.458Z,96.45
2018-12-14T06:44:43.532Z,96.33
2018-12-14T06:47:12.627Z,96.29
2018-12-14T06:49:41.742Z,96.46
2018-12-14T06:52:10.889Z,96.38
2018-12-14T06:54:40.678Z,96.37
2018-12-14T06:57:09.741Z,96.40
2018-12-14T06:59:39.418Z,96.34
2018-12-14T07:02:08.479Z,96.41
2018-12-14T07:04:38.565Z,96.50
2018-12-14T07:07:07.723Z,96.40
2018-12-14T07:09:37.867Z,96.38
2018-12-14T07:12:06.973Z,96.43
2018-12-14T07:14:36.938Z,96.41
2018-12-14T07:17:05.939Z,96.35
2018-12-14T07:19:35.131Z,96.29
2018-12-14T07:22:10.737Z,96.65
2018-12-14T07:24:39.776Z,96.26
2018-12-14T07:27:09.949Z,96.30
2018-12-14T07:29:39.033Z,96.32
2018-12-14T07:32:08.212Z,96.33
2018-12-14T07:34:37.210Z,96.12
2018-12-14T07:37:06.401Z,96.29
2018-12-14T07:39:35.399Z,96.08
2018-12-14T07:42:04.607Z,96.27
2018-12-14T07:44:33.803Z,96.24
2018-12-14T07:47:02.962Z,96.19
2018-12-14T07:49:32.051Z,96.17
2018-12-14T07:52:01.080Z,96.18
2018-12-14T07:54:30.145Z,96.04
2018-12-14T07:56:59.131Z,96.14
2018-12-14T07:59:28.146Z,96.20
2018-12-14T08:01:57.146Z,96.16
2018-12-14T08:04:26.433Z,95.87
2018-12-14T08:06:56.004Z,95.84
2018-12-14T08:09:25.397Z,95.75
2018-12-14T08:11:54.437Z,95.49
2018-12-14T08:14:23.497Z,95.83
2018-12-14T08:16:52.610Z,95.63
2018-12-14T08:19:21.720Z,95.42
2018-12-14T08:21:50.767Z,95.17
2018-12-14T08:24:19.769Z,94.93
2018-12-14T08:26:48.819Z,94.75
2018-12-14T08:29:18.220Z,94.58
2018-12-14T08:31:47.308Z,94.24
2018-12-14T08:34:16.299Z,93.58
2018-12-14T08:36:45.473Z,92.78
2018-12-14T08:39:14.571Z,92.30
2018-12-14T08:41:43.763Z,91.98
2018-12-14T08:44:12.917Z,91.58
2018-12-14T08:46:41.914Z,91.07
2018-12-14T08:49:10.939Z,90.14
2018-12-14T08:51:39.950Z,89.53
2018-12-14T08:54:09.038Z,89.84
2018-12-14T08:56:38.118Z,90.34
2018-12-14T08:59:07.152Z,90.37
2018-12-14T09:01:36.678Z,90.79
2018-12-14T09:04:05.738Z,91.16
2018-12-14T09:06:35.022Z,91.44
2018-12-14T09:09:06.114Z,91.59
2018-12-14T09:11:35.239Z,91.67
2018-12-14T09:14:04.314Z,91.98
2018-12-14T09:16:33.523Z,91.90
2018-12-14T09:19:02.715Z,92.11
2018-12-14T09:21:31.837Z,92.10
2018-12-14T09:24:00.912Z,91.90
2018-12-14T09:26:30.715Z,91.46
2018-12-14T09:29:00.136Z,91.43
2018-12-14T09:31:29.388Z,91.44
2018-12-14T09:33:58.428Z,91.38
2018-12-14T09:36:27.543Z,91.08
2018-12-14T09:38:56.515Z,90.47
2018-12-14T09:41:25.582Z,90.17
2018-12-14T09:43:54.900Z,89.66
2018-12-14T09:46:23.975Z,89.13
2018-12-14T09:48:53.025Z,88.93
2018-12-14T09:51:22.051Z,88.57
2018-12-14T09:53:51.075Z,88.54
2018-12-14T09:56:20.188Z,88.54
2018-12-14T09:58:49.166Z,88.82
2018-12-14T10:01:18.210Z,88.76
2018-12-14T10:03:47.615Z,88.85
2018-12-14T10:06:16.772Z,87.68
2018-12-14T10:08:45.773Z,87.14
2018-12-14T10:11:15.158Z,87.13
2018-12-14T10:13:44.275Z,85.39
2018-12-14T10:16:13.490Z,84.40
2018-12-14T10:18:42.955Z,83.74
2018-12-14T10:21:12.142Z,83.54
2018-12-14T10:23:41.262Z,82.79
2018-12-14T10:26:10.246Z,83.25
2018-12-14T10:28:39.411Z,82.28
2018-12-14T10:31:08.574Z,81.33
2018-12-14T10:33:37.945Z,81.73
2018-12-14T10:36:07.055Z,81.27
2018-12-14T10:38:36.171Z,80.48
2018-12-14T10:41:05.504Z,79.59
2018-12-14T10:43:34.854Z,79.31
2018-12-14T10:46:04.073Z,79.85
2018-12-14T10:48:33.235Z,79.29
2018-12-14T10:51:02.254Z,79.34
2018-12-14T10:53:31.343Z,79.46
2018-12-14T10:56:00.506Z,78.22
2018-12-14T10:58:29.640Z,77.85
2018-12-14T11:01:04.101Z,78.23
2018-12-14T11:03:33.214Z,77.80
2018-12-14T11:06:02.372Z,78.00
2018-12-14T11:08:31.434Z,77.83
2018-12-14T11:11:00.420Z,77.64
2018-12-14T11:13:29.513Z,78.12
2018-12-14T11:15:58.618Z,77.79
2018-12-14T11:18:29.519Z,77.21
2018-12-14T11:20:59.219Z,77.48
2018-12-14T11:23:29.874Z,78.13
2018-12-14T11:25:58.870Z,78.69
2018-12-14T11:28:28.812Z,78.89
2018-12-14T11:30:58.321Z,79.21
2018-12-14T11:33:27.342Z,79.09
2018-12-14T11:35:56.467Z,79.61
2018-12-14T11:38:25.472Z,79.71
2018-12-14T11:40:54.543Z,80.07
2018-12-14T11:43:23.663Z,80.19
2018-12-14T11:45:52.795Z,80.22
2018-12-14T11:48:21.891Z,80.12
2018-12-14T11:50:51.137Z,79.05
2018-12-14T11:53:20.157Z,79.43
2018-12-14T11:55:49.623Z,79.42
2018-12-14T11:58:18.913Z,79.30
2018-12-14T12:00:47.954Z,79.03
2018-12-14T12:03:16.989Z,78.90
2018-12-14T12:05:46.195Z,78.50
2018-12-14T12:08:15.803Z,78.46
2018-12-14T12:10:44.911Z,78.48
2018-12-14T12:13:13.928Z,78.58
2018-12-14T12:15:43.088Z,78.95
2018-12-14T12:18:12.090Z,78.63
2018-12-14T12:20:41.187Z,78.11
2018-12-14T12:23:10.217Z,77.69
2018-12-14T12:25:39.208Z,77.65
2018-12-14T12:28:08.205Z,77.77
2018-12-14T12:30:37.303Z,77.51
2018-12-14T12:33:06.469Z,77.63
2018-12-14T12:35:35.566Z,78.41
2018-12-14T12:38:04.644Z,78.82
2018-12-14T12:40:33.664Z,79.06
2018-12-14T12:43:02.774Z,79.47
2018-12-14T12:45:32.817Z,79.53
2018-12-14T12:48:01.846Z,78.94
2018-12-14T12:50:30.835Z,78.90
2018-12-14T12:52:59.845Z,79.51
2018-12-14T12:55:28.826Z,78.75
2018-12-14T12:57:57.823Z,79.25
2018-12-14T13:00:26.982Z,79.27
2018-12-14T13:02:56.088Z,79.21
2018-12-14T13:05:25.100Z,79.59
2018-12-14T13:07:54.249Z,79.17
2018-12-14T13:10:23.753Z,79.47
2018-12-14T13:12:53.438Z,79.12
2018-12-14T13:15:22.507Z,79.53
2018-12-14T13:17:51.506Z,79.68
2018-12-14T13:20:20.801Z,79.63
2018-12-14T13:22:50.429Z,79.87
2018-12-14T13:25:19.689Z,80.30
2018-12-14T13:27:48.677Z,80.06
2018-12-14T13:30:17.717Z,80.05
2018-12-14T13:32:46.950Z,80.05
2018-12-14T13:35:16.139Z,80.01
2018-12-14T13:37:45.183Z,80.23
2018-12-14T13:40:14.476Z,80.37
2018-12-14T13:42:43.679Z,80.06
2018-12-14T13:45:12.933Z,80.30
2018-12-14T13:47:42.132Z,80.73
2018-12-14T13:50:11.347Z,80.97
2018-12-14T13:52:41.276Z,80.98
2018-12-14T13:55:10.442Z,81.29
2018-12-14T13:57:39.765Z,81.34
2018-12-14T14:00:09.330Z,81.61
2018-12-14T14:02:38.763Z,81.56
2018-12-14T14:05:08.400Z,81.21
2018-12-14T14:07:37.408Z,81.56
2018-12-14T14:10:06.832Z,81.57
2018-12-14T14:12:36.294Z,82.40
2018-12-14T14:15:06.904Z,82.42
2018-12-14T14:17:36.079Z,82.32
2018-12-14T14:20:06.829Z,82.27
2018-12-14T14:22:36.302Z,82.68
2018-12-14T14:25:06.099Z,82.76
2018-12-14T14:27:35.416Z,82.98
2018-12-14T14:30:05.145Z,83.15
2018-12-14T14:32:34.415Z,82.86
2018-12-14T14:35:03.464Z,83.35
2018-12-14T14:37:32.517Z,83.34
2018-12-14T14:40:03.028Z,83.74
2018-12-14T14:42:32.098Z,84.14
2018-12-14T14:45:01.201Z,84.43
2018-12-14T14:47:30.311Z,84.19
2018-12-14T14:49:59.753Z,84.39
2018-12-14T14:52:29.584Z,84.64
2018-12-14T14:54:58.996Z,84.52
2018-12-14T14:57:29.396Z,84.47
2018-12-14T14:59:58.598Z,84.66
2018-12-14T15:02:27.756Z,84.75
2018-12-14T15:04:56.877Z,84.94
2018-12-14T15:07:25.951Z,84.93
2018-12-14T15:09:54.914Z,85.25
2018-12-14T15:12:24.778Z,85.04
2018-12-14T15:14:54.359Z,85.20
2018-12-14T15:17:23.427Z,85.54
2018-12-14T15:19:52.528Z,85.51
2018-12-14T15:22:21.723Z,85.51
2018-12-14T15:24:52.634Z,85.61
2018-12-14T15:27:21.718Z,85.71
2018-12-14T15:29:50.785Z,85.84
2018-12-14T15:32:19.950Z,85.83
2018-12-14T15:34:49.461Z,86.10
2018-12-14T15:37:18.587Z,86.07
2018-12-14T15:39:47.670Z,86.28
2018-12-14T15:42:16.885Z,85.95
2018-12-14T15:44:45.918Z,86.27
2018-12-14T15:47:15.117Z,86.51
2018-12-14T15:49:44.238Z,86.57
2018-12-14T15:52:13.327Z,86.80
2018-12-14T15:54:42.474Z,86.82
2018-12-14T15:57:12.255Z,86.91
2018-12-14T15:59:41.345Z,86.85
2018-12-14T16:02:10.373Z,86.84
2018-12-14T16:04:39.457Z,86.98
2018-12-14T16:07:08.660Z,86.86
2018-12-14T16:09:37.806Z,86.91
2018-12-14T16:12:06.818Z,86.85
2018-12-14T16:14:35.832Z,86.78
2018-12-14T16:17:04.987Z,86.80
2018-12-14T16:19:34.173Z,86.96
2018-12-14T16:22:03.453Z,87.17
2018-12-14T16:24:32.572Z,87.21
2018-12-14T16:27:01.606Z,87.31
2018-12-14T16:29:30.888Z,87.66
2018-12-14T16:32:00.017Z,87.46
2018-12-14T16:34:29.200Z,87.55
2018-12-14T16:36:58.348Z,87.81
2018-12-14T16:39:27.620Z,87.91
2018-12-14T16:41:56.620Z,87.70
2018-12-14T16:44:25.809Z,87.70
2018-12-14T16:46:54.813Z,87.76
2018-12-14T16:49:23.827Z,87.90
2018-12-14T16:51:52.878Z,87.89
2018-12-14T16:54:21.904Z,88.08
2018-12-14T16:56:50.914Z,88.15
2018-12-14T16:59:20.056Z,88.21
2018-12-14T17:01:49.138Z,88.27
2018-12-14T17:04:18.201Z,88.55
2018-12-14T17:06:47.419Z,88.31
2018-12-14T17:09:16.822Z,88.31
2018-12-14T17:11:46.065Z,88.41
2018-12-14T17:14:15.071Z,88.38
2018-12-14T17:16:44.180Z,88.29
2018-12-14T17:19:13.192Z,88.50
2018-12-14T17:21:42.156Z,88.47
2018-12-14T17:24:11.293Z,88.55
2018-12-14T17:26:40.299Z,88.78
2018-12-14T17:29:09.336Z,88.86
2018-12-14T17:31:38.385Z,88.91
2018-12-14T17:34:07.397Z,88.88
2018-12-14T17:36:36.393Z,88.93
2018-12-14T17:39:06.513Z,88.66
2018-12-14T17:41:35.627Z,88.76
2018-12-14T17:44:04.744Z,88.74
2018-12-14T17:46:34.366Z,88.65
2018-12-14T17:49:03.450Z,88.75
2018-12-14T17:51:33.157Z,88.90
2018-12-14T17:54:02.450Z,89.09
2018-12-14T17:56:31.457Z,89.03
2018-12-14T17:59:01.372Z,89.00
2018-12-14T18:01:30.492Z,89.16
2018-12-14T18:03:59.469Z,89.06
2018-12-14T18:06:28.621Z,88.90
2018-12-14T18:08:57.744Z,89.33
2018-12-14T18:11:26.881Z,89.47
2018-12-14T18:13:56.187Z,89.40
2018-12-14T18:16:26.198Z,89.47
2018-12-14T18:18:55.193Z,89.54
2018-12-14T18:21:24.214Z,89.37
2018-12-14T18:23:53.210Z,89.50
2018-12-14T18:26:22.295Z,89.49
2018-12-14T18:28:51.370Z,89.37
2018-12-14T18:31:20.457Z,89.34
2018-12-14T18:33:49.617Z,89.50
2018-12-14T18:36:20.483Z,89.52
2018-12-14T18:38:49.469Z,89.56
2018-12-14T18:41:18.504Z,89.65
2018-12-14T18:43:47.563Z,89.32
2018-12-14T18:46:16.597Z,89.39
2018-12-14T18:48:45.729Z,89.40
2018-12-14T18:51:14.857Z,89.07
2018-12-14T18:53:53.788Z,88.99
2018-12-14T18:56:23.120Z,88.89
2018-12-14T18:58:53.242Z,89.11
2018-12-14T19:01:22.966Z,89.61
2018-12-14T19:03:54.160Z,89.64
2018-12-14T19:06:23.285Z,89.60
2018-12-14T19:08:52.388Z,89.53
2018-12-14T19:11:21.454Z,89.78
2018-12-14T19:14:07.849Z,89.84
2018-12-14T19:16:37.735Z,89.65
2018-12-14T19:19:06.899Z,88.92
2018-12-14T19:21:35.955Z,88.96
2018-12-14T19:24:05.156Z,89.43
2018-12-14T19:26:34.270Z,89.32
2018-12-14T19:29:03.420Z,89.01
2018-12-14T19:31:32.596Z,89.08
2018-12-14T19:34:01.745Z,89.25
2018-12-14T19:36:30.898Z,88.77
2018-12-14T19:38:59.900Z,88.84
2018-12-14T19:41:29.063Z,88.86
2018-12-14T19:43:58.264Z,88.52
2018-12-14T19:46:27.712Z,88.44
2018-12-14T19:48:56.774Z,88.58
2018-12-14T19:51:26.520Z,88.68
2018-12-14T19:53:55.644Z,88.74
2018-12-14T19:56:24.847Z,88.80
2018-12-14T19:58:54.295Z,88.41
2018-12-14T20:01:23.509Z,88.02
2018-12-14T20:03:52.896Z,88.25
2018-12-14T20:06:22.060Z,88.03
2018-12-14T20:08:51.346Z,87.75
2018-12-14T20:11:20.620Z,87.44
2018-12-14T20:13:50.424Z,87.41
2018-12-14T20:16:19.611Z,87.92
2018-12-14T20:18:48.755Z,88.02
2018-12-14T20:21:18.104Z,87.94
2018-12-14T20:23:47.290Z,87.81
2018-12-14T20:26:16.420Z,87.75
2018-12-14T20:28:45.511Z,87.58
2018-12-14T20:31:14.794Z,87.70
2018-12-14T20:33:43.915Z,87.77
2018-12-14T20:36:13.803Z,87.85
2018-12-14T20:38:43.759Z,87.82
2018-12-14T20:41:12.979Z,87.46
2018-12-14T20:43:42.330Z,87.32
2018-12-14T20:46:11.939Z,86.98
2018-12-14T20:48:41.619Z,86.63
2018-12-14T20:51:11.145Z,86.33
2018-12-14T20:53:40.606Z,86.27
2018-12-14T20:56:10.677Z,86.19
2018-12-14T20:58:40.008Z,86.34
2018-12-14T21:01:09.321Z,86.19
2018-12-14T21:03:38.698Z,85.69
2018-12-14T21:06:07.796Z,85.57
2018-12-14T21:08:37.326Z,85.69
2018-12-14T21:11:06.370Z,85.53
2018-12-14T21:13:35.453Z,85.34
2018-12-14T21:16:04.623Z,85.48
2018-12-14T21:18:33.810Z,85.51
2018-12-14T21:21:03.232Z,85.29
2018-12-14T21:23:32.277Z,85.49
2018-12-14T21:26:01.484Z,85.50
2018-12-14T21:28:30.808Z,85.30
2018-12-14T21:30:59.949Z,85.24
2018-12-14T21:33:28.958Z,85.33
2018-12-14T21:35:58.102Z,85.07
2018-12-14T21:38:27.319Z,85.19
2018-12-14T21:40:56.429Z,85.45
2018-12-14T21:43:25.429Z,85.56
2018-12-14T21:45:54.625Z,85.13
2018-12-14T21:48:23.711Z,85.02
2018-12-14T21:50:52.928Z,85.46
2018-12-14T21:53:22.065Z,85.23
2018-12-14T21:55:51.168Z,85.37
2018-12-14T21:58:20.456Z,85.68
2018-12-14T22:00:49.564Z,85.76
2018-12-14T22:03:18.603Z,86.15
2018-12-14T22:05:47.621Z,85.51
2018-12-14T22:08:16.778Z,85.00
2018-12-14T22:10:45.893Z,84.97
2018-12-14T22:13:15.696Z,84.97
2018-12-14T22:15:44.872Z,85.14
2018-12-14T22:18:14.038Z,85.03
2018-12-14T22:20:43.156Z,85.12
2018-12-14T22:23:12.172Z,85.13
2018-12-14T22:25:41.237Z,85.19
2018-12-14T22:28:10.378Z,85.20
2018-12-14T22:30:39.612Z,85.07
2018-12-14T22:33:08.760Z,85.04
2018-12-14T22:35:38.042Z,84.88
2018-12-14T22:38:07.176Z,84.77
2018-12-14T22:40:37.847Z,84.76
2018-12-14T22:43:06.959Z,84.48
2018-12-14T22:45:36.128Z,84.05
2018-12-14T22:48:05.385Z,84.39
2018-12-14T22:50:34.704Z,83.97
2018-12-14T22:53:03.923Z,84.17
2018-12-14T22:55:33.299Z,84.36
2018-12-14T22:58:02.537Z,84.28
2018-12-14T23:00:32.524Z,84.15
2018-12-14T23:03:02.327Z,84.14
2018-12-14T23:05:31.462Z,84.49
2018-12-14T23:08:00.624Z,84.60
2018-12-14T23:10:29.746Z,84.58
2018-12-14T23:12:58.923Z,84.29
2018-12-14T23:15:28.150Z,84.17
2018-12-14T23:17:57.203Z,83.91
2018-12-14T23:20:26.409Z,84.19
2018-12-14T23:22:55.462Z,84.05
2018-12-14T23:25:24.464Z,84.12
2018-12-14T23:27:53.470Z,84.14
2018-12-14T23:30:22.524Z,83.99
2018-12-14T23:32:51.605Z,83.82
2018-12-14T23:35:20.611Z,83.91
2018-12-14T23:37:49.705Z,83.93
2018-12-14T23:40:18.805Z,83.64
2018-12-14T23:42:47.945Z,83.22
2018-12-14T23:45:17.024Z,83.42
2018-12-14T23:47:46.129Z,83.16
2018-12-14T23:50:15.171Z,83.29
2018-12-14T23:52:44.389Z,83.63
2018-12-14T23:55:13.657Z,84.06
2018-12-14T23:57:42.738Z,84.07
